createdAt,value
2024-02-15T00:01:43.610Z,31.65
2024-02-15T00:04:46.799Z,29.80
2024-02-15T00:07:50.283Z,25.42
2024-02-15T00:10:54.731Z,28.38
2024-02-15T00:13:58.428Z,34.25
2024-02-15T00:17:01.276Z,36.70
2024-02-15T00:20:10.962Z,39.33
2024-02-15T00:23:14.236Z,32.63
2024-02-15T00:26:17.734Z,30.38
2024-02-15T00:29:20.542Z,29.43
2024-02-15T00:32:23.332Z,30.77
2024-02-15T00:35:29.004Z,29.05
2024-02-15T00:38:33.578Z,33.97
2024-02-15T00:41:36.451Z,47.60
2024-02-15T00:44:40.819Z,50.20
2024-02-15T00:47:43.866Z,59.95
2024-02-15T00:50:47.166Z,67.30
2024-02-15T00:53:50.313Z,66.63
2024-02-15T00:56:53.465Z,67.13
2024-02-15T00:59:56.683Z,78.03
2024-02-15T01:03:00.117Z,87.53
2024-02-15T01:06:04.001Z,77.57
2024-02-15T01:09:07.182Z,67.93
2024-02-15T01:12:11.578Z,60.25
2024-02-15T01:15:14.770Z,68.85
2024-02-15T01:18:17.974Z,42.17
2024-02-15T01:21:21.095Z,37.27
2024-02-15T01:24:26.560Z,32.90
2024-02-15T01:27:31.557Z,30.58
2024-02-15T01:30:34.882Z,29.17
2024-02-15T01:33:38.780Z,33.85
2024-02-15T01:36:41.686Z,25.90
2024-02-15T01:39:44.368Z,23.80
2024-02-15T01:42:47.191Z,25.52
2024-02-15T01:45:49.964Z,26.60
2024-02-15T01:48:53.018Z,24.45
2024-02-15T01:51:58.027Z,24.40
2024-02-15T01:55:04.349Z,24.25
2024-02-15T01:58:08.189Z,27.30
2024-02-15T02:01:11.195Z,27.90
2024-02-15T02:04:15.044Z,21.52
2024-02-15T02:07:18.178Z,25.92
2024-02-15T02:10:21.301Z,23.63
2024-02-15T02:13:25.067Z,20.27
2024-02-15T02:16:36.851Z,23.55
2024-02-15T02:19:40.043Z,16.60
2024-02-15T02:22:46.986Z,21.17
2024-02-15T02:25:50.648Z,23.35
2024-02-15T02:28:54.733Z,24.48
2024-02-15T02:31:58.497Z,19.17
2024-02-15T02:35:01.911Z,22.92
2024-02-15T02:38:05.278Z,17.67
2024-02-15T02:41:08.554Z,17.70
2024-02-15T02:44:11.394Z,17.63
2024-02-15T02:47:14.445Z,20.17
2024-02-15T02:50:17.530Z,23.63
2024-02-15T02:53:20.654Z,17.13
2024-02-15T02:56:23.570Z,16.92
2024-02-15T02:59:26.671Z,21.10
2024-02-15T03:02:30.757Z,19.80
2024-02-15T03:05:34.245Z,16.98
2024-02-15T03:08:37.405Z,18.77
2024-02-15T03:11:40.225Z,21.55
2024-02-15T03:14:43.146Z,18.45
2024-02-15T03:17:49.215Z,20.15
2024-02-15T03:20:52.559Z,21.98
2024-02-15T03:23:55.836Z,23.97
2024-02-15T03:26:58.722Z,18.95
2024-02-15T03:30:01.804Z,24.80
2024-02-15T03:33:07.559Z,22.20
2024-02-15T03:36:13.197Z,24.90
2024-02-15T03:39:15.978Z,24.88
2024-02-15T03:42:18.946Z,27.48
2024-02-15T03:45:25.587Z,24.15
2024-02-15T03:48:28.728Z,29.52
2024-02-15T03:51:33.716Z,26.85
2024-02-15T03:54:36.513Z,27.63
2024-02-15T03:57:45.005Z,27.48
2024-02-15T04:00:48.015Z,41.75
2024-02-15T04:03:50.929Z,51.57
2024-02-15T04:06:54.100Z,69.25
2024-02-15T04:09:56.969Z,74.53
2024-02-15T04:13:00.068Z,66.50
2024-02-15T04:16:03.798Z,84.40
2024-02-15T04:19:07.020Z,64.65
2024-02-15T04:22:09.993Z,59.28
2024-02-15T04:25:18.187Z,58.40
2024-02-15T04:28:21.721Z,57.83
2024-02-15T04:31:27.691Z,51.50
2024-02-15T04:34:35.288Z,56.73
2024-02-15T04:37:38.947Z,53.38
2024-02-15T04:40:42.149Z,66.55
2024-02-15T04:43:47.818Z,71.85
2024-02-15T04:46:50.970Z,69.57
2024-02-15T04:49:53.976Z,57.83
2024-02-15T04:52:57.240Z,61.22
2024-02-15T04:56:08.326Z,45.27
2024-02-15T04:59:16.460Z,50.95
2024-02-15T05:02:21.001Z,44.45
2024-02-15T05:05:25.381Z,37.30
2024-02-15T05:08:29.419Z,34.63
2024-02-15T05:11:32.250Z,41.35
2024-02-15T05:14:39.700Z,36.67
2024-02-15T05:17:43.937Z,43.95
2024-02-15T05:20:47.168Z,44.65
2024-02-15T05:23:50.267Z,49.78
2024-02-15T05:26:53.817Z,55.20
2024-02-15T05:29:56.732Z,46.97
2024-02-15T05:33:01.894Z,48.30
2024-02-15T05:36:05.258Z,54.13
2024-02-15T05:39:09.070Z,54.63
2024-02-15T05:42:12.297Z,49.90
2024-02-15T05:45:24.431Z,53.83
2024-02-15T05:48:29.240Z,66.10
2024-02-15T05:51:33.256Z,63.42
2024-02-15T05:54:36.085Z,64.85
2024-02-15T05:57:39.198Z,97.47
2024-02-15T06:00:42.616Z,88.38
2024-02-15T06:03:46.276Z,85.00
2024-02-15T06:06:50.342Z,69.63
2024-02-15T06:09:53.639Z,73.05
2024-02-15T06:12:58.916Z,75.55
2024-02-15T06:16:02.337Z,73.03
2024-02-15T06:19:05.619Z,70.60
2024-02-15T06:22:09.751Z,65.30
2024-02-15T06:25:12.667Z,71.18
2024-02-15T06:28:34.267Z,63.43
2024-02-15T06:31:55.764Z,66.38
2024-02-15T06:35:17.265Z,63.58
2024-02-15T06:38:38.866Z,62.73
2024-02-15T06:41:42.132Z,73.25
2024-02-15T06:44:46.434Z,80.47
2024-02-15T06:47:49.465Z,76.00
2024-02-15T06:50:52.309Z,61.42
2024-02-15T06:53:57.720Z,55.67
2024-02-15T06:57:01.047Z,69.80
2024-02-15T07:00:10.852Z,64.27
2024-02-15T07:03:14.178Z,58.20
2024-02-15T07:06:18.358Z,55.00
2024-02-15T07:09:24.275Z,54.27
2024-02-15T07:12:27.100Z,57.70
2024-02-15T07:15:33.226Z,54.60
2024-02-15T07:18:36.108Z,48.97
2024-02-15T07:21:39.588Z,51.50
2024-02-15T07:24:42.557Z,41.65
2024-02-15T07:27:45.577Z,48.65
2024-02-15T07:30:52.618Z,34.77
2024-02-15T07:33:56.576Z,40.67
2024-02-15T07:37:00.635Z,31.63
2024-02-15T07:40:09.449Z,38.70
2024-02-15T07:43:13.394Z,48.28
2024-02-15T07:46:17.809Z,36.50
2024-02-15T07:49:21.796Z,39.88
2024-02-15T07:52:25.327Z,30.45
2024-02-15T07:55:29.394Z,29.55
2024-02-15T07:58:32.879Z,29.83
2024-02-15T08:01:36.010Z,20.73
2024-02-15T08:04:42.325Z,21.23
2024-02-15T08:07:46.497Z,20.65
2024-02-15T08:10:52.819Z,19.50
2024-02-15T08:13:55.962Z,21.95
2024-02-15T08:16:58.868Z,28.30
2024-02-15T08:20:02.006Z,26.92
2024-02-15T08:23:05.517Z,27.10
2024-02-15T08:26:08.402Z,26.33
2024-02-15T08:29:13.152Z,23.13
2024-02-15T08:32:15.863Z,20.53
2024-02-15T08:35:19.161Z,19.40
2024-02-15T08:38:23.672Z,21.50
2024-02-15T08:41:28.177Z,20.17
2024-02-15T08:44:31.036Z,17.50
2024-02-15T08:47:34.175Z,18.40
2024-02-15T08:50:37.360Z,20.92
2024-02-15T08:53:40.403Z,20.60
2024-02-15T08:56:43.506Z,18.92
2024-02-15T08:59:46.640Z,18.65
2024-02-15T09:02:54.343Z,18.90
2024-02-15T09:05:59.248Z,14.70
2024-02-15T09:09:02.719Z,23.33
2024-02-15T09:12:09.950Z,19.23
2024-02-15T09:15:13.175Z,15.57
2024-02-15T09:18:16.319Z,14.70
2024-02-15T09:21:19.941Z,16.27
2024-02-15T09:24:26.383Z,14.70
2024-02-15T09:27:29.502Z,13.23
2024-02-15T09:30:33.160Z,13.25
2024-02-15T09:33:36.009Z,10.15
2024-02-15T09:36:39.230Z,10.27
2024-02-15T09:39:42.408Z,10.95
2024-02-15T09:42:46.566Z,16.38
2024-02-15T09:45:49.905Z,12.52
2024-02-15T09:48:59.813Z,14.40
2024-02-15T09:52:04.948Z,11.73
2024-02-15T09:55:14.564Z,14.00
2024-02-15T09:58:18.555Z,13.73
2024-02-15T10:01:24.477Z,11.57
2024-02-15T10:04:28.392Z,10.40
2024-02-15T10:07:31.735Z,11.32
2024-02-15T10:10:36.882Z,12.90
2024-02-15T10:13:41.176Z,20.30
2024-02-15T10:16:45.456Z,11.70
2024-02-15T10:20:07.688Z,12.05
2024-02-15T10:23:12.335Z,13.77
2024-02-15T10:26:24.094Z,13.63
2024-02-15T10:29:27.426Z,12.23
2024-02-15T10:32:37.115Z,12.30
2024-02-15T10:35:40.689Z,13.27
2024-02-15T10:38:43.970Z,15.90
2024-02-15T10:41:48.709Z,10.40
2024-02-15T10:44:53.961Z,13.70
2024-02-15T10:47:57.171Z,10.95
2024-02-15T10:51:05.159Z,9.57
2024-02-15T10:54:14.115Z,10.65
2024-02-15T10:57:23.752Z,11.60
2024-02-15T11:00:34.919Z,12.68
2024-02-15T11:03:48.589Z,8.20
2024-02-15T11:06:53.793Z,10.57
2024-02-15T11:10:03.302Z,10.57
2024-02-15T11:13:06.878Z,12.18
2024-02-15T11:16:09.718Z,11.23
2024-02-15T11:19:38.135Z,8.30
2024-02-15T11:22:41.084Z,10.30
2024-02-15T11:25:44.303Z,8.27
2024-02-15T11:28:52.020Z,10.35
2024-02-15T11:31:56.167Z,10.07
2024-02-15T11:35:18.329Z,7.23
2024-02-15T11:38:31.313Z,7.65
2024-02-15T11:41:34.554Z,7.72
2024-02-15T11:44:37.577Z,9.63
2024-02-15T11:47:44.768Z,6.13
2024-02-15T11:50:47.876Z,5.63
2024-02-15T11:54:00.821Z,5.82
2024-02-15T11:57:11.688Z,8.68
2024-02-15T12:00:42.000Z,9.90
2024-02-15T12:04:07.333Z,10.17
2024-02-15T12:07:30.464Z,6.27
2024-02-15T12:10:52.184Z,5.85
2024-02-15T12:14:13.763Z,7.00
2024-02-15T12:17:35.391Z,11.43
2024-02-15T12:20:38.452Z,7.30
2024-02-15T12:23:42.729Z,8.17
2024-02-15T12:26:48.017Z,8.15
2024-02-15T12:29:55.363Z,5.97
2024-02-15T12:33:14.679Z,8.20
2024-02-15T12:36:21.161Z,8.00
2024-02-15T12:39:29.414Z,7.77
2024-02-15T12:42:33.693Z,6.68
2024-02-15T12:45:38.187Z,8.30
2024-02-15T12:48:43.806Z,8.05
2024-02-15T12:52:25.778Z,7.47
2024-02-15T12:55:35.376Z,10.80
2024-02-15T12:58:40.512Z,9.30
2024-02-15T13:01:44.101Z,6.85
2024-02-15T13:04:47.030Z,6.60
2024-02-15T13:07:51.952Z,6.10
2024-02-15T13:10:57.662Z,6.60
2024-02-15T13:14:01.079Z,4.90
2024-02-15T13:17:04.087Z,5.25
2024-02-15T13:20:12.899Z,6.57
2024-02-15T13:23:17.164Z,10.77
2024-02-15T13:26:21.422Z,4.67
2024-02-15T13:29:24.585Z,8.30
2024-02-15T13:32:29.573Z,7.18
2024-02-15T13:35:33.410Z,7.05
2024-02-15T13:38:38.192Z,7.13
2024-02-15T13:41:40.956Z,5.50
2024-02-15T13:44:45.852Z,5.68
2024-02-15T13:47:48.971Z,7.00
2024-02-15T13:50:55.213Z,6.63
2024-02-15T13:53:58.172Z,7.77
2024-02-15T13:57:04.380Z,7.15
2024-02-15T14:00:08.358Z,5.50
2024-02-15T14:03:17.063Z,4.87
2024-02-15T14:06:20.147Z,7.57
2024-02-15T14:09:27.302Z,6.18
2024-02-15T14:12:30.811Z,4.82
2024-02-15T14:15:42.096Z,10.47
2024-02-15T14:18:46.278Z,5.03
2024-02-15T14:21:49.519Z,6.50
2024-02-15T14:24:52.532Z,7.07
2024-02-15T14:27:57.290Z,9.90
2024-02-15T14:31:19.555Z,3.50
2024-02-15T14:34:26.326Z,4.93
2024-02-15T14:37:29.490Z,6.45
2024-02-15T14:40:47.399Z,9.17
2024-02-15T14:43:51.963Z,7.27
2024-02-15T14:46:55.089Z,8.45
2024-02-15T14:49:57.954Z,10.38
2024-02-15T14:53:00.962Z,16.33
2024-02-15T14:56:06.214Z,15.60
2024-02-15T14:59:08.920Z,9.60
2024-02-15T15:02:12.540Z,8.25
2024-02-15T15:05:34.512Z,6.87
2024-02-15T15:08:56.395Z,13.55
2024-02-15T15:12:17.784Z,8.93
2024-02-15T15:15:20.581Z,15.30
2024-02-15T15:18:23.424Z,14.77
2024-02-15T15:21:29.440Z,13.55
2024-02-15T15:24:36.110Z,18.63
2024-02-15T15:27:38.951Z,17.83
2024-02-15T15:30:41.997Z,20.75
2024-02-15T15:33:45.042Z,17.58
2024-02-15T15:36:51.180Z,18.33
2024-02-15T15:39:56.752Z,14.93
2024-02-15T15:42:59.548Z,14.32
2024-02-15T15:46:02.509Z,19.90
2024-02-15T15:49:07.228Z,21.73
2024-02-15T15:52:10.251Z,23.38
2024-02-15T15:55:13.327Z,18.60
2024-02-15T15:58:17.162Z,14.37
2024-02-15T16:01:20.568Z,14.50
2024-02-15T16:04:24.214Z,20.50
2024-02-15T16:07:27.568Z,16.38
2024-02-15T16:10:30.737Z,16.63
2024-02-15T16:13:33.537Z,17.52
2024-02-15T16:16:36.620Z,22.58
2024-02-15T16:19:39.802Z,33.83
2024-02-15T16:22:43.231Z,46.80
2024-02-15T16:25:46.288Z,39.63
2024-02-15T16:28:49.560Z,47.50
2024-02-15T16:31:52.486Z,54.13
2024-02-15T16:35:00.120Z,94.70
2024-02-15T16:38:04.200Z,77.35
2024-02-15T16:41:08.381Z,40.17
2024-02-15T16:44:12.209Z,34.35
2024-02-15T16:47:17.446Z,40.33
2024-02-15T16:50:47.903Z,54.57
2024-02-15T16:53:50.832Z,43.83
2024-02-15T16:57:04.462Z,61.88
2024-02-15T17:00:14.061Z,59.20
2024-02-15T17:03:17.912Z,64.90
2024-02-15T17:06:21.305Z,75.88
2024-02-15T17:09:24.140Z,50.95
2024-02-15T17:12:27.748Z,43.35
2024-02-15T17:15:30.872Z,38.72
2024-02-15T17:18:35.193Z,34.55
2024-02-15T17:21:42.856Z,35.77
2024-02-15T17:24:45.999Z,32.10
2024-02-15T17:27:49.604Z,25.85
2024-02-15T17:30:53.634Z,21.37
2024-02-15T17:33:56.459Z,29.92
2024-02-15T17:36:59.762Z,33.33
2024-02-15T17:40:02.625Z,33.40
2024-02-15T17:43:06.707Z,28.15
2024-02-15T17:46:09.584Z,27.70
2024-02-15T17:49:12.452Z,43.05
2024-02-15T17:52:15.230Z,54.77
2024-02-15T17:55:19.214Z,89.57
2024-02-15T17:58:22.454Z,101.53
2024-02-15T18:01:25.908Z,72.27
2024-02-15T18:04:29.516Z,43.67
2024-02-15T18:07:33.337Z,30.75
2024-02-15T18:10:36.176Z,31.23
2024-02-15T18:13:40.624Z,30.75
2024-02-15T18:16:49.502Z,33.17
2024-02-15T18:19:52.684Z,29.90
2024-02-15T18:22:56.779Z,26.83
2024-02-15T18:25:59.712Z,28.13
2024-02-15T18:29:02.767Z,28.80
2024-02-15T18:32:06.346Z,29.20
2024-02-15T18:35:13.334Z,35.78
2024-02-15T18:38:19.564Z,57.17
2024-02-15T18:41:22.436Z,89.57
2024-02-15T18:44:26.966Z,108.70
2024-02-15T18:47:30.891Z,86.03
2024-02-15T18:50:36.309Z,63.88
2024-02-15T18:53:39.302Z,60.77
2024-02-15T18:56:43.182Z,41.28
2024-02-15T18:59:46.135Z,32.97
2024-02-15T19:02:52.240Z,29.83
2024-02-15T19:05:55.182Z,28.30
2024-02-15T19:08:59.585Z,31.40
2024-02-15T19:12:02.798Z,26.23
2024-02-15T19:15:08.192Z,22.75
2024-02-15T19:18:12.150Z,32.28
2024-02-15T19:21:15.415Z,37.78
2024-02-15T19:24:18.674Z,46.63
2024-02-15T19:27:22.081Z,55.47
2024-02-15T19:30:24.993Z,61.42
2024-02-15T19:33:31.770Z,57.13
2024-02-15T19:36:40.221Z,52.67
2024-02-15T19:39:43.568Z,47.50
2024-02-15T19:42:46.934Z,43.65
2024-02-15T19:45:49.999Z,38.78
2024-02-15T19:48:53.130Z,39.90
2024-02-15T19:51:56.082Z,38.47
2024-02-15T19:54:59.629Z,32.63
2024-02-15T19:58:02.565Z,35.00
2024-02-15T20:01:05.351Z,36.00
2024-02-15T20:04:08.282Z,37.33
2024-02-15T20:07:11.465Z,44.33
2024-02-15T20:10:14.565Z,35.42
2024-02-15T20:13:17.729Z,37.00
2024-02-15T20:16:23.330Z,26.23
2024-02-15T20:19:29.319Z,31.88
2024-02-15T20:22:32.434Z,30.10
2024-02-15T20:25:35.384Z,36.17
2024-02-15T20:28:39.027Z,34.40
2024-02-15T20:31:46.341Z,39.25
2024-02-15T20:34:49.506Z,35.23
2024-02-15T20:37:52.933Z,33.47
2024-02-15T20:41:07.081Z,33.47
2024-02-15T20:44:14.177Z,29.02
2024-02-15T20:47:20.352Z,28.27
2024-02-15T20:50:23.542Z,30.92
2024-02-15T20:53:27.777Z,31.55
2024-02-15T20:56:31.143Z,38.70
2024-02-15T20:59:33.984Z,40.90
2024-02-15T21:02:37.624Z,36.25
2024-02-15T21:05:40.555Z,40.87
2024-02-15T21:08:44.900Z,38.50
2024-02-15T21:11:48.122Z,38.88
2024-02-15T21:14:50.979Z,34.42
2024-02-15T21:17:54.114Z,32.72
2024-02-15T21:20:57.342Z,31.45
2024-02-15T21:24:00.580Z,28.45
2024-02-15T21:27:03.635Z,34.53
2024-02-15T21:30:07.095Z,31.42
2024-02-15T21:33:10.374Z,26.95
2024-02-15T21:36:14.339Z,24.10
2024-02-15T21:39:17.706Z,21.77
2024-02-15T21:42:24.036Z,23.98
2024-02-15T21:45:26.929Z,22.40
2024-02-15T21:48:34.031Z,23.92
2024-02-15T21:51:37.207Z,22.60
2024-02-15T21:54:40.271Z,26.60
2024-02-15T21:57:43.283Z,20.53
2024-02-15T22:00:46.454Z,23.77
2024-02-15T22:03:49.570Z,21.70
2024-02-15T22:06:52.772Z,21.93
2024-02-15T22:09:56.230Z,19.90
2024-02-15T22:12:59.078Z,28.02
2024-02-15T22:16:02.125Z,22.77
2024-02-15T22:19:07.275Z,19.83
2024-02-15T22:22:11.396Z,21.38
2024-02-15T22:25:15.594Z,19.17
2024-02-15T22:28:19.261Z,20.87
2024-02-15T22:31:25.538Z,21.17
2024-02-15T22:34:29.770Z,18.63
2024-02-15T22:37:34.439Z,21.17
2024-02-15T22:40:37.227Z,18.63
2024-02-15T22:43:41.144Z,24.65
2024-02-15T22:46:48.371Z,24.52
2024-02-15T22:49:51.624Z,22.90
2024-02-15T22:52:54.453Z,25.58
2024-02-15T22:55:57.688Z,22.05
2024-02-15T22:59:00.396Z,18.90
2024-02-15T23:02:03.652Z,16.52
2024-02-15T23:05:09.916Z,23.95
2024-02-15T23:08:13.142Z,21.57
2024-02-15T23:11:16.862Z,23.25
2024-02-15T23:14:22.062Z,24.92
2024-02-15T23:17:28.496Z,21.35
2024-02-15T23:20:31.667Z,21.73
2024-02-15T23:23:37.964Z,19.50
2024-02-15T23:26:40.904Z,26.25
2024-02-15T23:29:44.944Z,21.37
2024-02-15T23:32:47.806Z,23.30
2024-02-15T23:36:09.459Z,29.33
2024-02-15T23:39:31.157Z,35.13
2024-02-15T23:42:34.023Z,34.00
2024-02-15T23:45:37.332Z,32.83
2024-02-15T23:48:41.289Z,28.98
2024-02-15T23:51:46.497Z,29.05
2024-02-15T23:54:49.778Z,28.27
2024-02-15T23:57:52.714Z,31.90
